Time,TemperatureF,DewpointF,PressureIn,WindDirection,WindDirectionDegrees,WindSpeedMPH,WindSpeedGustMPH,Humidity,HourlyPrecipIn,Conditions,Clouds,dailyrainin,SoftwareType,DateUTC
2013-07-03 00:01:00,52.3,50.4,29.97,ESE,112,0.0,0.0,93,0.00,,---,0.00,VWS V14.01,2013-07-02 14:01:00,
2013-07-03 00:06:00,52.3,50.4,29.97,East,90,0.0,0.0,93,0.00,,---,0.00,VWS V14.01,2013-07-02 14:06:00,
2013-07-03 00:11:00,52.3,50.4,29.97,East,90,0.0,0.0,93,0.00,,---,0.00,VWS V14.01,2013-07-02 14:11:00,
2013-07-03 00:16:00,52.3,50.4,29.97,East,90,0.0,0.0,93,0.00,,---,0.00,VWS V14.01,2013-07-02 14:16:00,
2013-07-03 00:21:00,52.3,50.4,29.97,East,90,0.0,0.0,93,0.00,,---,0.00,VWS V14.01,2013-07-02 14:21:00,
2013-07-03 00:26:00,52.3,50.4,29.94,NNE,22,0.0,0.0,93,0.00,,---,0.00,VWS V14.01,2013-07-02 14:26:00,
2013-07-03 00:31:00,52.5,50.6,29.94,NNE,22,0.0,0.0,93,0.00,,---,0.00,VWS V14.01,2013-07-02 14:31:00,
2013-07-03 00:36:00,52.3,50.4,29.94,NNE,22,0.0,0.0,93,0.00,,---,0.00,VWS V14.01,2013-07-02 14:36:00,
2013-07-03 00:41:00,52.3,50.4,29.94,NNE,22,0.0,0.0,93,0.00,,---,0.00,VWS V14.01,2013-07-02 14:41:00,
2013-07-03 00:46:00,52.3,50.4,29.94,NNE,22,0.0,0.0,93,0.00,,---,0.00,VWS V14.01,2013-07-02 14:46:00,
2013-07-03 00:51:00,52.3,50.4,29.94,NNE,22,0.0,0.0,93,0.00,,---,0.00,VWS V14.01,2013-07-02 14:51:00,
2013-07-03 00:56:00,52.3,50.4,29.94,NNE,22,0.0,0.0,93,0.00,,---,0.00,VWS V14.01,2013-07-02 14:56:00,
2013-07-03 01:01:00,52.3,50.4,29.94,NNE,22,0.0,0.0,93,0.00,,---,0.00,VWS V14.01,2013-07-02 15:01:00,
2013-07-03 01:06:00,52.3,50.4,29.94,NNE,22,0.0,0.0,93,0.00,,---,0.00,VWS V14.01,2013-07-02 15:06:00,
2013-07-03 01:11:00,52.3,50.7,29.94,NNE,22,0.0,0.0,94,0.00,,---,0.00,VWS V14.01,2013-07-02 15:11:00,
2013-07-03 01:16:00,52.3,50.7,29.94,NNE,22,0.0,0.0,94,0.00,,---,0.00,VWS V14.01,2013-07-02 15:16:00,
2013-07-03 01:21:00,52.2,50.5,29.94,NNE,22,0.0,0.0,94,0.00,,---,0.00,VWS V14.01,2013-07-02 15:21:00,
2013-07-03 01:26:00,52.2,50.5,29.97,NW,315,0.0,0.0,94,0.00,,---,0.00,VWS V14.01,2013-07-02 15:26:00,
2013-07-03 01:31:00,52.2,50.5,29.97,NW,315,0.0,0.0,94,0.00,,---,0.00,VWS V14.01,2013-07-02 15:31:00,
2013-07-03 01:36:00,52.2,50.5,29.97,NW,315,0.0,0.0,94,0.00,,---,0.00,VWS V14.01,2013-07-02 15:36:00,
2013-07-03 01:41:00,52.0,50.3,29.97,NW,315,0.0,0.0,94,0.00,,---,0.00,VWS V14.01,2013-07-02 15:41:00,
2013-07-03 01:46:00,52.0,50.3,29.97,NW,315,0.0,0.0,94,0.00,,---,0.00,VWS V14.01,2013-07-02 15:46:00,
2013-07-03 01:51:00,51.8,50.1,29.97,WNW,292,0.0,0.0,94,0.00,,---,0.00,VWS V14.01,2013-07-02 15:51:00,
2013-07-03 01:56:00,51.8,50.1,29.97,WNW,292,0.0,0.0,94,0.00,,---,0.00,VWS V14.01,2013-07-02 15:56:00,
2013-07-03 02:01:00,51.8,50.1,29.97,WNW,292,0.0,0.0,94,0.00,,---,0.00,VWS V14.01,2013-07-02 16:01:00,
2013-07-03 02:06:00,51.6,50.0,29.97,West,270,0.0,0.0,94,0.00,,---,0.00,VWS V14.01,2013-07-02 16:06:00,
2013-07-03 02:11:00,51.6,50.0,29.97,NW,315,0.0,0.0,94,0.00,,---,0.00,VWS V14.01,2013-07-02 16:11:00,
2013-07-03 02:16:00,51.6,50.0,29.94,NW,315,0.0,0.0,94,0.00,,---,0.00,VWS V14.01,2013-07-02 16:16:00,
2013-07-03 02:21:00,51.6,50.0,29.94,SW,225,0.0,0.0,94,0.00,,---,0.00,VWS V14.01,2013-07-02 16:21:00,
2013-07-03 02:26:00,51.6,50.0,29.94,SSW,202,0.0,0.0,94,0.00,,---,0.00,VWS V14.01,2013-07-02 16:26:00,
2013-07-03 02:31:00,51.6,50.0,29.94,South,180,0.0,0.0,94,0.00,,---,0.00,VWS V14.01,2013-07-02 16:31:00,
2013-07-03 02:36:00,51.6,50.2,29.94,West,270,0.0,0.0,95,0.00,,---,0.00,VWS V14.01,2013-07-02 16:36:00,
2013-07-03 02:41:00,51.6,50.2,29.94,West,270,0.0,0.0,95,0.00,,---,0.00,VWS V14.01,2013-07-02 16:41:00,
2013-07-03 02:46:00,51.6,50.2,29.94,West,270,0.0,0.0,95,0.00,,---,0.00,VWS V14.01,2013-07-02 16:46:00,
2013-07-03 02:51:00,51.6,50.2,29.94,WNW,292,0.0,0.0,95,0.00,,---,0.00,VWS V14.01,2013-07-02 16:51:00,
2013-07-03 02:56:00,51.6,50.2,29.94,ENE,68,0.0,0.0,95,0.00,,---,0.00,VWS V14.01,2013-07-02 16:56:00,
2013-07-03 03:01:00,51.6,50.2,29.94,East,90,0.0,0.0,95,0.00,,---,0.00,VWS V14.01,2013-07-02 17:01:00,
2013-07-03 03:06:00,51.6,50.2,29.94,ESE,112,0.0,0.0,95,0.00,,---,0.00,VWS V14.01,2013-07-02 17:06:00,
2013-07-03 03:11:00,51.8,50.4,29.94,ESE,112,0.0,0.0,95,0.00,,---,0.00,VWS V14.01,2013-07-02 17:11:00,
2013-07-03 03:16:00,51.8,50.4,29.94,East,90,0.0,0.0,95,0.00,,---,0.00,VWS V14.01,2013-07-02 17:16:00,
2013-07-03 03:21:00,51.8,50.4,29.94,East,90,0.0,0.0,95,0.00,,---,0.00,VWS V14.01,2013-07-02 17:21:00,
2013-07-03 03:26:00,51.8,50.4,29.94,ESE,112,0.0,0.0,95,0.00,,---,0.00,VWS V14.01,2013-07-02 17:26:00,
2013-07-03 03:31:00,51.8,50.4,29.94,East,90,0.0,0.0,95,0.00,,---,0.00,VWS V14.01,2013-07-02 17:31:00,
2013-07-03 03:36:00,51.6,50.2,29.94,East,90,0.0,0.0,95,0.00,,---,0.00,VWS V14.01,2013-07-02 17:36:00,
2013-07-03 03:41:00,51.6,50.2,29.94,East,90,0.0,0.0,95,0.00,,---,0.00,VWS V14.01,2013-07-02 17:41:00,
2013-07-03 03:46:00,51.4,50.1,29.94,East,90,0.0,0.0,95,0.00,,---,0.00,VWS V14.01,2013-07-02 17:46:00,
2013-07-03 03:51:00,51.3,49.9,29.94,East,90,0.0,0.0,95,0.00,,---,0.00,VWS V14.01,2013-07-02 17:51:00,
2013-07-03 03:56:00,51.3,49.9,29.94,East,90,0.0,0.0,95,0.00,,---,0.00,VWS V14.01,2013-07-02 17:56:00,
2013-07-03 04:01:00,50.9,49.5,29.94,East,90,0.0,0.0,95,0.00,,---,0.00,VWS V14.01,2013-07-02 18:01:00,
2013-07-03 04:06:00,50.9,49.5,29.94,East,90,0.0,0.0,95,0.00,,---,0.00,VWS V14.01,2013-07-02 18:06:00,
2013-07-03 04:11:00,50.9,49.5,29.94,North,0,2.0,2.7,95,0.00,,---,0.00,VWS V14.01,2013-07-02 18:11:00,
2013-07-03 04:16:00,50.7,49.1,29.94,NNW,338,2.0,2.5,94,0.00,,---,0.00,VWS V14.01,2013-07-02 18:16:00,
2013-07-03 04:21:00,50.7,49.1,29.94,NNW,338,2.7,2.7,94,0.00,,---,0.00,VWS V14.01,2013-07-02 18:21:00,
2013-07-03 04:26:00,50.9,49.2,29.94,NNW,338,2.2,2.2,94,0.00,,---,0.00,VWS V14.01,2013-07-02 18:26:00,
2013-07-03 04:31:00,50.9,49.2,29.94,NW,315,2.0,2.5,94,0.00,,---,0.00,VWS V14.01,2013-07-02 18:31:00,
2013-07-03 04:36:00,50.9,49.2,29.94,North,0,3.4,3.4,94,0.00,,---,0.00,VWS V14.01,2013-07-02 18:36:00,
2013-07-03 04:41:00,51.1,49.4,29.94,NNW,338,3.6,3.6,94,0.00,,---,0.00,VWS V14.01,2013-07-02 18:41:00,
2013-07-03 04:46:00,51.1,49.4,29.94,NNW,338,3.1,3.4,94,0.00,,---,0.00,VWS V14.01,2013-07-02 18:46:00,
2013-07-03 04:51:00,51.1,49.4,29.94,NNW,338,3.4,3.4,94,0.00,,---,0.00,VWS V14.01,2013-07-02 18:51:00,
2013-07-03 04:56:00,51.3,49.6,29.97,NNW,338,3.8,3.8,94,0.00,,---,0.00,VWS V14.01,2013-07-02 18:56:00,
2013-07-03 05:01:00,51.3,49.6,29.97,NNW,338,3.4,3.4,94,0.00,,---,0.00,VWS V14.01,2013-07-02 19:01:00,
2013-07-03 05:06:00,51.3,49.9,29.97,North,0,1.6,1.6,95,0.00,,---,0.00,VWS V14.01,2013-07-02 19:06:00,
2013-07-03 05:11:00,51.3,49.9,29.97,NNW,338,1.6,1.6,95,0.00,,---,0.00,VWS V14.01,2013-07-02 19:11:00,
2013-07-03 05:16:00,51.1,49.7,29.97,North,0,2.5,2.5,95,0.00,,---,0.00,VWS V14.01,2013-07-02 19:16:00,
2013-07-03 05:21:00,51.1,49.7,29.97,North,0,2.0,2.0,95,0.00,,---,0.00,VWS V14.01,2013-07-02 19:21:00,
2013-07-03 05:26:00,50.9,49.5,29.97,North,0,2.5,2.5,95,0.00,,---,0.00,VWS V14.01,2013-07-02 19:26:00,
2013-07-03 05:31:00,50.9,49.5,29.97,North,0,2.9,2.9,95,0.00,,---,0.00,VWS V14.01,2013-07-02 19:31:00,
2013-07-03 05:36:00,50.9,49.5,29.97,North,0,3.1,3.1,95,0.00,,---,0.00,VWS V14.01,2013-07-02 19:36:00,
2013-07-03 05:41:00,50.9,49.5,29.97,NNE,22,3.1,3.1,95,0.00,,---,0.00,VWS V14.01,2013-07-02 19:41:00,
2013-07-03 05:46:00,50.7,49.3,29.97,North,0,2.9,2.9,95,0.00,,---,0.00,VWS V14.01,2013-07-02 19:46:00,
2013-07-03 05:51:00,50.7,49.3,29.97,NW,315,2.7,2.7,95,0.00,,---,0.00,VWS V14.01,2013-07-02 19:51:00,
2013-07-03 05:56:00,50.5,49.2,29.97,WNW,292,1.6,1.6,95,0.00,,---,0.00,VWS V14.01,2013-07-02 19:56:00,
2013-07-03 06:01:00,50.5,49.2,29.97,NW,315,0.9,1.6,95,0.00,,---,0.00,VWS V14.01,2013-07-02 20:01:00,
2013-07-03 06:06:00,50.4,49.0,29.97,NNW,338,0.0,0.0,95,0.00,,---,0.00,VWS V14.01,2013-07-02 20:06:00,
2013-07-03 06:11:00,50.2,48.8,30.00,North,0,0.0,0.0,95,0.00,,---,0.00,VWS V14.01,2013-07-02 20:11:00,
2013-07-03 06:16:00,50.0,48.6,30.00,North,0,0.0,0.0,95,0.00,,---,0.00,VWS V14.01,2013-07-02 20:16:00,
2013-07-03 06:21:00,49.8,48.7,30.00,North,0,0.0,0.0,96,0.00,,---,0.00,VWS V14.01,2013-07-02 20:21:00,
2013-07-03 06:26:00,49.8,48.7,30.00,NW,315,0.0,0.0,96,0.00,,---,0.00,VWS V14.01,2013-07-02 20:26:00,
2013-07-03 06:31:00,49.8,48.5,30.00,NW,315,0.0,0.0,95,0.00,,---,0.00,VWS V14.01,2013-07-02 20:31:00,
2013-07-03 06:36:00,49.6,48.3,30.00,NW,315,0.0,0.0,95,0.00,,---,0.00,VWS V14.01,2013-07-02 20:36:00,
2013-07-03 06:41:00,49.6,48.3,30.00,WNW,292,0.0,0.0,95,0.00,,---,0.00,VWS V14.01,2013-07-02 20:41:00,
2013-07-03 06:46:00,49.5,48.1,30.00,WNW,292,0.0,0.0,95,0.00,,---,0.00,VWS V14.01,2013-07-02 20:46:00,
2013-07-03 06:51:00,49.5,48.1,30.00,WNW,292,0.0,0.0,95,0.00,,---,0.00,VWS V14.01,2013-07-02 20:51:00,
2013-07-03 06:56:00,49.5,48.1,30.00,WNW,292,0.0,0.0,95,0.00,,---,0.00,VWS V14.01,2013-07-02 20:56:00,
2013-07-03 07:01:00,49.5,48.1,30.00,NW,315,0.0,0.0,95,0.00,,---,0.00,VWS V14.01,2013-07-02 21:01:00,
2013-07-03 07:06:00,49.5,48.1,30.00,NW,315,0.0,0.0,95,0.00,,---,0.00,VWS V14.01,2013-07-02 21:06:00,
2013-07-03 07:11:00,49.5,48.1,30.00,NW,315,0.0,0.0,95,0.00,,---,0.00,VWS V14.01,2013-07-02 21:11:00,
2013-07-03 07:16:00,49.6,48.3,30.00,NW,315,0.0,0.0,95,0.00,,---,0.00,VWS V14.01,2013-07-02 21:16:00,
2013-07-03 07:21:00,49.6,48.3,30.00,NW,315,0.0,0.0,95,0.00,,---,0.00,VWS V14.01,2013-07-02 21:21:00,
2013-07-03 07:26:00,49.6,48.3,30.00,NW,315,0.0,0.0,95,0.00,,---,0.00,VWS V14.01,2013-07-02 21:26:00,
2013-07-03 07:31:00,49.6,48.3,30.00,NNW,338,1.6,1.6,95,0.00,,---,0.00,VWS V14.01,2013-07-02 21:31:00,
2013-07-03 07:36:00,49.6,48.5,30.00,NNW,338,1.6,1.6,96,0.00,,---,0.00,VWS V14.01,2013-07-02 21:36:00,
2013-07-03 07:41:00,49.6,48.5,30.00,NNW,338,0.0,0.0,96,0.00,,---,0.00,VWS V14.01,2013-07-02 21:41:00,
2013-07-03 07:46:00,49.6,48.5,30.00,NNW,338,0.0,0.0,96,0.00,,---,0.00,VWS V14.01,2013-07-02 21:46:00,
2013-07-03 07:51:00,49.6,48.5,30.00,NNW,338,1.1,1.1,96,0.00,,---,0.00,VWS V14.01,2013-07-02 21:51:00,
2013-07-03 07:56:00,49.6,48.5,30.00,NW,315,0.0,0.0,96,0.00,,---,0.00,VWS V14.01,2013-07-02 21:56:00,
2013-07-03 08:01:00,49.6,48.5,30.00,NW,315,0.0,0.0,96,0.00,,---,0.00,VWS V14.01,2013-07-02 22:01:00,
2013-07-03 08:06:00,49.6,48.5,30.00,North,0,2.5,2.5,96,0.00,,---,0.00,VWS V14.01,2013-07-02 22:06:00,
2013-07-03 08:11:00,49.6,48.5,30.00,North,0,2.7,2.7,96,0.00,,---,0.00,VWS V14.01,2013-07-02 22:11:00,
2013-07-03 08:16:00,49.8,48.7,30.00,North,0,2.9,2.9,96,0.00,,---,0.00,VWS V14.01,2013-07-02 22:16:00,
2013-07-03 08:21:00,49.8,48.7,30.00,NW,315,2.7,2.7,96,0.00,,---,0.00,VWS V14.01,2013-07-02 22:21:00,
2013-07-03 08:26:00,49.8,48.7,30.00,NNW,338,3.4,3.4,96,0.00,,---,0.00,VWS V14.01,2013-07-02 22:26:00,
2013-07-03 08:31:00,50.0,48.9,30.00,WNW,292,2.2,2.2,96,0.00,,---,0.00,VWS V14.01,2013-07-02 22:31:00,
2013-07-03 08:36:00,50.0,48.9,30.00,North,0,2.9,2.9,96,0.00,,---,0.00,VWS V14.01,2013-07-02 22:36:00,
2013-07-03 08:41:00,50.0,48.9,30.03,North,0,4.3,4.3,96,0.00,,---,0.00,VWS V14.01,2013-07-02 22:41:00,
2013-07-03 08:46:00,50.2,49.1,30.03,NNW,338,2.0,2.0,96,0.00,,---,0.00,VWS V14.01,2013-07-02 22:46:00,
2013-07-03 08:51:00,50.2,49.1,30.03,NNW,338,3.1,3.1,96,0.00,,---,0.00,VWS V14.01,2013-07-02 22:51:00,
2013-07-03 08:56:00,50.4,49.3,30.00,NNW,338,2.9,3.1,96,0.00,,---,0.00,VWS V14.01,2013-07-02 22:56:00,
2013-07-03 09:01:00,50.4,49.3,30.00,NW,315,3.4,3.4,96,0.00,,---,0.00,VWS V14.01,2013-07-02 23:01:00,
2013-07-03 09:06:00,50.5,49.5,30.00,NW,315,2.0,2.0,96,0.00,,---,0.00,VWS V14.01,2013-07-02 23:06:00,
2013-07-03 09:11:00,50.9,49.8,30.03,North,0,0.9,0.9,96,0.00,,---,0.00,VWS V14.01,2013-07-02 23:11:00,
2013-07-03 09:16:00,51.1,50.0,30.03,NNE,22,2.9,2.9,96,0.00,,---,0.00,VWS V14.01,2013-07-02 23:16:00,
2013-07-03 09:21:00,51.4,50.3,30.03,West,270,0.9,0.9,96,0.00,,---,0.00,VWS V14.01,2013-07-02 23:21:00,
2013-07-03 09:26:00,51.8,50.7,30.03,West,270,0.9,0.9,96,0.00,,---,0.00,VWS V14.01,2013-07-02 23:26:00,
2013-07-03 09:29:00,52.2,51.1,30.03,West,270,0.9,0.9,96,0.00,,---,0.00,VWS V14.01,2013-07-02 23:29:00,
2013-07-03 09:34:00,52.3,51.2,30.03,West,270,0.9,0.9,96,0.00,,---,0.00,VWS V14.01,2013-07-02 23:34:00,
2013-07-03 09:39:00,52.9,51.8,30.03,West,270,0.9,0.9,96,0.00,,---,0.00,VWS V14.01,2013-07-02 23:39:00,
2013-07-03 09:44:00,53.1,52.0,30.03,West,270,0.9,0.9,96,0.00,,---,0.00,VWS V14.01,2013-07-02 23:44:00,
2013-07-03 09:49:00,53.4,52.3,30.03,West,270,0.9,0.9,96,0.00,,---,0.00,VWS V14.01,2013-07-02 23:49:00,
2013-07-03 09:54:00,53.8,52.7,30.03,West,270,0.9,0.9,96,0.00,,---,0.00,VWS V14.01,2013-07-02 23:54:00,
2013-07-03 09:59:00,54.1,53.0,30.00,West,270,0.9,0.9,96,0.00,,---,0.00,VWS V14.01,2013-07-02 23:59:00,
2013-07-03 10:01:00,54.3,53.2,30.00,West,270,0.9,0.9,96,0.00,,---,0.00,VWS V14.01,2013-07-03 00:01:00,
2013-07-03 10:06:00,54.7,53.3,30.00,West,270,0.9,0.9,95,0.00,,---,0.00,VWS V14.01,2013-07-03 00:06:00,
2013-07-03 10:11:00,55.0,53.6,30.00,West,270,0.9,0.9,95,0.00,,---,0.00,VWS V14.01,2013-07-03 00:11:00,
2013-07-03 10:16:00,55.4,53.7,30.00,West,270,0.9,0.9,94,0.00,,---,0.00,VWS V14.01,2013-07-03 00:16:00,
2013-07-03 10:21:00,55.9,54.2,30.00,West,270,0.9,0.9,94,0.00,,---,0.00,VWS V14.01,2013-07-03 00:21:00,
2013-07-03 10:23:00,55.9,54.2,30.00,West,270,0.9,0.9,94,0.00,,---,0.00,VWS V14.01,2013-07-03 00:23:00,
2013-07-03 10:24:00,55.9,54.2,30.00,West,270,0.9,0.9,94,0.00,,---,0.00,VWS V14.01,2013-07-03 00:24:00,
2013-07-03 10:28:00,56.3,54.3,30.00,West,270,0.9,0.9,93,0.00,,---,0.00,VWS V14.01,2013-07-03 00:28:00,
2013-07-03 10:33:00,56.7,54.7,30.00,West,270,0.9,0.9,93,0.00,,---,0.00,VWS V14.01,2013-07-03 00:33:00,
2013-07-03 10:38:00,56.8,54.5,30.00,West,270,0.9,0.9,92,0.00,,---,0.00,VWS V14.01,2013-07-03 00:38:00,
2013-07-03 10:43:00,57.0,54.4,30.00,West,270,0.9,0.9,91,0.00,,---,0.00,VWS V14.01,2013-07-03 00:43:00,
2013-07-03 10:48:00,57.2,54.0,30.00,West,270,0.9,0.9,89,0.00,,---,0.00,VWS V14.01,2013-07-03 00:48:00,
2013-07-03 10:53:00,57.6,54.0,30.00,West,270,0.9,0.9,88,0.00,,---,0.00,VWS V14.01,2013-07-03 00:53:00,
2013-07-03 10:58:00,57.7,53.9,30.00,West,270,0.9,0.9,87,0.00,,---,0.00,VWS V14.01,2013-07-03 00:58:00,
2013-07-03 11:00:00,57.9,53.8,30.00,West,270,0.9,0.9,86,0.00,,---,0.00,VWS V14.01,2013-07-03 01:00:00,
2013-07-03 11:03:00,58.1,53.6,30.00,West,270,0.9,0.9,85,0.00,,---,0.00,VWS V14.01,2013-07-03 01:03:00,
2013-07-03 11:08:00,58.3,53.5,30.00,West,270,0.9,0.9,84,0.00,,---,0.00,VWS V14.01,2013-07-03 01:08:00,
2013-07-03 11:09:00,58.5,53.7,30.00,West,270,0.9,0.9,84,0.00,,---,0.00,VWS V14.01,2013-07-03 01:09:00,
2013-07-03 11:14:00,58.6,53.5,30.00,West,270,0.9,0.9,83,0.00,,---,0.00,VWS V14.01,2013-07-03 01:14:00,
2013-07-03 11:19:00,58.8,53.7,30.00,West,270,0.9,0.9,83,0.00,,---,0.00,VWS V14.01,2013-07-03 01:19:00,
2013-07-03 11:24:00,59.2,53.7,30.00,West,270,0.9,0.9,82,0.00,,---,0.00,VWS V14.01,2013-07-03 01:24:00,
2013-07-03 11:26:00,59.2,53.7,29.97,West,270,0.9,0.9,82,0.00,,---,0.00,VWS V14.01,2013-07-03 01:26:00,
2013-07-03 11:31:00,59.4,53.5,29.97,West,270,0.9,0.9,81,0.00,,---,0.00,VWS V14.01,2013-07-03 01:31:00,
2013-07-03 11:36:00,59.7,53.5,29.97,West,270,0.9,0.9,80,0.00,,---,0.00,VWS V14.01,2013-07-03 01:36:00,
2013-07-03 11:41:00,59.9,53.7,29.97,West,270,0.9,0.9,80,0.00,,---,0.00,VWS V14.01,2013-07-03 01:41:00,
2013-07-03 11:46:00,60.1,53.9,29.97,WSW,248,2.9,2.9,80,0.00,,---,0.00,VWS V14.01,2013-07-03 01:46:00,
2013-07-03 11:49:00,60.3,54.1,29.97,WSW,248,2.9,2.9,80,0.00,,---,0.00,VWS V14.01,2013-07-03 01:49:00,
2013-07-03 11:50:00,60.4,54.2,29.97,WSW,248,2.9,2.9,80,0.00,,---,0.00,VWS V14.01,2013-07-03 01:50:00,
2013-07-03 11:55:00,60.4,54.2,29.97,WSW,248,2.9,2.9,80,0.00,,---,0.00,VWS V14.01,2013-07-03 01:55:00,
2013-07-03 12:00:00,60.6,54.1,29.97,WSW,248,2.9,2.9,79,0.00,,---,0.00,VWS V14.01,2013-07-03 02:00:00,
2013-07-03 12:05:00,61.0,54.4,29.97,WSW,248,2.9,2.9,79,0.00,,---,0.00,VWS V14.01,2013-07-03 02:05:00,
2013-07-03 12:10:00,61.2,54.6,29.97,NNW,338,3.4,3.4,79,0.00,,---,0.00,VWS V14.01,2013-07-03 02:10:00,
2013-07-03 12:15:00,61.3,54.4,29.97,NNW,338,3.4,3.4,78,0.00,,---,0.00,VWS V14.01,2013-07-03 02:15:00,
2013-07-03 12:20:00,61.7,54.4,29.97,NNW,338,3.4,3.4,77,0.00,,---,0.00,VWS V14.01,2013-07-03 02:20:00,
2013-07-03 12:25:00,61.7,54.4,29.94,NNW,338,3.4,3.4,77,0.00,,---,0.00,VWS V14.01,2013-07-03 02:25:00,
2013-07-03 12:30:00,61.9,54.2,29.94,NNW,338,3.4,3.4,76,0.00,,---,0.00,VWS V14.01,2013-07-03 02:30:00,
2013-07-03 12:32:00,61.9,54.2,29.94,NNW,338,3.4,3.4,76,0.00,,---,0.00,VWS V14.01,2013-07-03 02:32:00,
2013-07-03 12:37:00,62.2,54.6,29.94,NNW,338,3.4,3.4,76,0.00,,---,0.00,VWS V14.01,2013-07-03 02:37:00,
2013-07-03 12:42:00,62.2,54.2,29.94,NNW,338,3.4,3.4,75,0.00,,---,0.00,VWS V14.01,2013-07-03 02:42:00,
2013-07-03 12:46:00,62.2,54.2,29.94,NNW,338,3.4,3.4,75,0.00,,---,0.00,VWS V14.01,2013-07-03 02:46:00,
2013-07-03 12:51:00,62.4,54.0,29.94,NW,315,0.9,0.9,74,0.00,,---,0.00,VWS V14.01,2013-07-03 02:51:00,
2013-07-03 12:56:00,62.4,54.0,29.94,NW,315,3.1,3.1,74,0.00,,---,0.00,VWS V14.01,2013-07-03 02:56:00,
2013-07-03 13:01:00,62.6,53.8,29.94,NE,45,1.6,3.4,73,0.00,,---,0.00,VWS V14.01,2013-07-03 03:01:00,
2013-07-03 13:02:00,62.6,53.8,29.94,NE,45,1.6,1.6,73,0.00,,---,0.00,VWS V14.01,2013-07-03 03:02:00,
2013-07-03 13:07:00,62.6,53.8,29.94,West,270,3.6,3.6,73,0.00,,---,0.00,VWS V14.01,2013-07-03 03:07:00,
2013-07-03 13:12:00,62.6,53.8,29.94,NW,315,1.6,3.8,73,0.00,,---,0.00,VWS V14.01,2013-07-03 03:12:00,
2013-07-03 13:17:00,62.8,54.0,29.94,NNW,338,2.2,6.3,73,0.00,,---,0.00,VWS V14.01,2013-07-03 03:17:00,
2013-07-03 13:20:00,62.8,53.6,29.94,NNW,338,0.9,4.0,72,0.00,,---,0.00,VWS V14.01,2013-07-03 03:20:00,
2013-07-03 13:25:00,62.8,53.6,29.91,West,270,3.1,4.3,72,0.00,,---,0.00,VWS V14.01,2013-07-03 03:25:00,
2013-07-03 13:30:00,62.8,53.2,29.91,NW,315,2.0,2.0,71,0.00,,---,0.00,VWS V14.01,2013-07-03 03:30:00,
2013-07-03 13:35:00,62.6,53.1,29.91,NNW,338,3.8,3.8,71,0.00,,---,0.00,VWS V14.01,2013-07-03 03:35:00,
2013-07-03 13:39:00,62.8,53.2,29.91,NW,315,0.9,3.6,71,0.00,,---,0.00,VWS V14.01,2013-07-03 03:39:00,
2013-07-03 13:44:00,62.8,53.2,29.91,NNW,338,1.1,1.1,71,0.00,,---,0.00,VWS V14.01,2013-07-03 03:44:00,
2013-07-03 13:49:00,62.8,53.2,29.91,WNW,292,0.0,3.4,71,0.00,,---,0.00,VWS V14.01,2013-07-03 03:49:00,
2013-07-03 13:54:00,62.8,52.9,29.91,North,0,0.0,0.9,70,0.00,,---,0.00,VWS V14.01,2013-07-03 03:54:00,
2013-07-03 13:59:00,62.8,52.9,29.91,NW,315,3.1,3.1,70,0.00,,---,0.00,VWS V14.01,2013-07-03 03:59:00,
2013-07-03 14:00:00,62.6,52.7,29.91,NW,315,3.6,3.6,70,0.00,,---,0.00,VWS V14.01,2013-07-03 04:00:00,
2013-07-03 14:01:00,62.6,52.7,29.91,NNW,338,2.9,3.6,70,0.00,,---,0.00,VWS V14.01,2013-07-03 04:01:00,
2013-07-03 14:02:00,62.6,53.1,29.91,NE,45,0.0,0.0,71,0.00,,---,0.00,VWS V14.01,2013-07-03 04:02:00,
2013-07-03 14:03:00,62.6,53.1,29.91,East,90,2.5,2.5,71,0.00,,---,0.00,VWS V14.01,2013-07-03 04:03:00,
2013-07-03 14:04:00,62.6,53.1,29.91,West,270,2.7,2.7,71,0.00,,---,0.00,VWS V14.01,2013-07-03 04:04:00,
2013-07-03 14:09:00,62.6,52.3,29.91,South,180,0.9,0.9,69,0.00,,---,0.00,VWS V14.01,2013-07-03 04:09:00,
2013-07-03 14:14:00,62.6,51.9,29.91,NNE,22,0.9,0.9,68,0.00,,---,0.00,VWS V14.01,2013-07-03 04:14:00,
2013-07-03 14:19:00,62.6,51.9,29.91,North,0,1.3,2.0,68,0.00,,---,0.00,VWS V14.01,2013-07-03 04:19:00,
2013-07-03 14:24:00,62.6,51.5,29.91,West,270,2.5,2.5,67,0.00,,---,0.00,VWS V14.01,2013-07-03 04:24:00,
2013-07-03 14:29:00,62.6,52.3,29.91,NW,315,2.7,2.7,69,0.00,,---,0.00,VWS V14.01,2013-07-03 04:29:00,
2013-07-03 14:31:00,62.6,52.3,29.91,NW,315,5.4,5.4,69,0.00,,---,0.00,VWS V14.01,2013-07-03 04:31:00,
2013-07-03 14:32:00,62.6,52.3,29.91,NW,315,5.4,5.4,69,0.00,,---,0.00,VWS V14.01,2013-07-03 04:32:00,
2013-07-03 14:37:00,62.6,52.3,29.91,WNW,292,0.0,3.1,69,0.00,,---,0.00,VWS V14.01,2013-07-03 04:37:00,
2013-07-03 14:42:00,62.4,52.5,29.91,WNW,292,3.8,3.8,70,0.00,,---,0.00,VWS V14.01,2013-07-03 04:42:00,
2013-07-03 14:45:00,62.4,52.1,29.91,WNW,292,2.5,2.5,69,0.00,,---,0.00,VWS V14.01,2013-07-03 04:45:00,
2013-07-03 14:46:00,62.4,52.1,29.91,WNW,292,4.3,4.3,69,0.00,,---,0.00,VWS V14.01,2013-07-03 04:46:00,
2013-07-03 14:51:00,62.4,51.7,29.91,WSW,248,2.0,3.4,68,0.00,,---,0.00,VWS V14.01,2013-07-03 04:51:00,
2013-07-03 14:53:00,62.4,51.7,29.91,NNW,338,2.7,2.7,68,0.00,,---,0.00,VWS V14.01,2013-07-03 04:53:00,
2013-07-03 14:58:00,62.4,52.1,29.91,SSW,202,0.0,3.1,69,0.00,,---,0.00,VWS V14.01,2013-07-03 04:58:00,
2013-07-03 15:03:00,62.4,52.1,29.91,NNW,338,6.5,6.5,69,0.00,,---,0.00,VWS V14.01,2013-07-03 05:03:00,
2013-07-03 15:07:00,62.2,52.0,29.91,NW,315,4.5,4.5,69,0.00,,---,0.00,VWS V14.01,2013-07-03 05:07:00,
2013-07-03 15:12:00,62.2,52.0,29.91,NW,315,2.9,2.9,69,0.00,,---,0.00,VWS V14.01,2013-07-03 05:12:00,
2013-07-03 15:17:00,62.2,52.0,29.91,NNW,338,0.9,0.9,69,0.00,,---,0.00,VWS V14.01,2013-07-03 05:17:00,
2013-07-03 15:19:00,62.2,51.6,29.91,WSW,248,3.6,5.6,68,0.00,,---,0.00,VWS V14.01,2013-07-03 05:19:00,
2013-07-03 15:24:00,62.1,51.4,29.91,NNW,338,4.0,4.0,68,0.00,,---,0.00,VWS V14.01,2013-07-03 05:24:00,
2013-07-03 15:29:00,62.1,51.4,29.91,West,270,4.3,4.3,68,0.00,,---,0.00,VWS V14.01,2013-07-03 05:29:00,
2013-07-03 15:34:00,61.9,51.6,29.91,WNW,292,4.3,4.7,69,0.00,,---,0.00,VWS V14.01,2013-07-03 05:34:00,
2013-07-03 15:39:00,61.9,51.2,29.91,North,0,0.0,0.0,68,0.00,,---,0.00,VWS V14.01,2013-07-03 05:39:00,
2013-07-03 15:44:00,61.9,51.6,29.91,NW,315,2.2,2.2,69,0.00,,---,0.00,VWS V14.01,2013-07-03 05:44:00,
2013-07-03 15:49:00,61.7,51.4,29.91,SW,225,2.0,2.0,69,0.00,,---,0.00,VWS V14.01,2013-07-03 05:49:00,
2013-07-03 15:54:00,61.5,51.3,29.91,NNE,22,0.0,2.7,69,0.00,,---,0.00,VWS V14.01,2013-07-03 05:54:00,
2013-07-03 15:55:00,61.5,51.7,29.91,North,0,5.4,5.4,70,0.00,,---,0.00,VWS V14.01,2013-07-03 05:55:00,
2013-07-03 15:57:00,61.5,51.3,29.91,West,270,2.7,4.0,69,0.00,,---,0.00,VWS V14.01,2013-07-03 05:57:00,
2013-07-03 15:58:00,61.3,51.1,29.91,WNW,292,1.1,2.7,69,0.00,,---,0.00,VWS V14.01,2013-07-03 05:58:00,
2013-07-03 16:02:00,61.3,51.1,29.91,NW,315,3.1,3.1,69,0.00,,---,0.00,VWS V14.01,2013-07-03 06:02:00,
2013-07-03 16:07:00,61.2,50.9,29.91,NW,315,1.6,1.6,69,0.00,,---,0.00,VWS V14.01,2013-07-03 06:07:00,
2013-07-03 16:12:00,61.0,50.8,29.91,WNW,292,2.2,2.2,69,0.00,,---,0.00,VWS V14.01,2013-07-03 06:12:00,
2013-07-03 16:13:00,61.0,50.8,29.91,NNW,338,4.0,4.0,69,0.00,,---,0.00,VWS V14.01,2013-07-03 06:13:00,
2013-07-03 16:16:00,61.0,50.8,29.91,WSW,248,2.5,2.5,69,0.00,,---,0.00,VWS V14.01,2013-07-03 06:16:00,
2013-07-03 16:17:00,61.0,50.8,29.91,North,0,2.2,2.5,69,0.00,,---,0.00,VWS V14.01,2013-07-03 06:17:00,
2013-07-03 16:22:00,60.6,50.8,29.91,NW,315,1.1,1.1,70,0.00,,---,0.00,VWS V14.01,2013-07-03 06:22:00,
2013-07-03 16:24:00,60.6,50.8,29.91,WNW,292,2.0,2.0,70,0.00,,---,0.00,VWS V14.01,2013-07-03 06:24:00,
2013-07-03 16:27:00,60.6,51.2,29.91,NNW,338,0.9,3.1,71,0.00,,---,0.00,VWS V14.01,2013-07-03 06:27:00,
2013-07-03 16:32:00,60.4,51.4,29.91,North,0,0.0,0.0,72,0.00,,---,0.00,VWS V14.01,2013-07-03 06:32:00,
2013-07-03 16:37:00,59.9,51.2,29.91,WNW,292,2.0,2.0,73,0.00,,---,0.00,VWS V14.01,2013-07-03 06:37:00,
2013-07-03 16:42:00,59.7,51.1,29.91,East,90,0.0,0.0,73,0.00,,---,0.00,VWS V14.01,2013-07-03 06:42:00,
2013-07-03 16:43:00,59.7,51.1,29.91,East,90,0.0,0.0,73,0.00,,---,0.00,VWS V14.01,2013-07-03 06:43:00,
2013-07-03 16:48:00,59.4,50.7,29.91,East,90,0.0,0.0,73,0.00,,---,0.00,VWS V14.01,2013-07-03 06:48:00,
2013-07-03 16:53:00,59.0,50.7,29.91,ENE,68,0.0,0.0,74,0.00,,---,0.00,VWS V14.01,2013-07-03 06:53:00,
2013-07-03 16:55:00,59.0,50.7,29.91,ESE,112,0.0,0.0,74,0.00,,---,0.00,VWS V14.01,2013-07-03 06:55:00,
2013-07-03 17:00:00,58.8,50.6,29.91,East,90,0.0,0.0,74,0.00,,---,0.00,VWS V14.01,2013-07-03 07:00:00,
2013-07-03 17:05:00,58.5,50.6,29.91,ENE,68,0.0,0.0,75,0.00,,---,0.00,VWS V14.01,2013-07-03 07:05:00,
2013-07-03 17:10:00,58.3,50.4,29.91,NE,45,0.0,1.3,75,0.00,,---,0.00,VWS V14.01,2013-07-03 07:10:00,
2013-07-03 17:15:00,58.1,50.6,29.91,ESE,112,0.0,0.0,76,0.00,,---,0.00,VWS V14.01,2013-07-03 07:15:00,
2013-07-03 17:16:00,58.1,50.6,29.91,East,90,0.9,0.9,76,0.00,,---,0.00,VWS V14.01,2013-07-03 07:16:00,
2013-07-03 17:21:00,57.7,50.2,29.91,ENE,68,2.5,2.5,76,0.00,,---,0.00,VWS V14.01,2013-07-03 07:21:00,
2013-07-03 17:26:00,57.6,50.1,29.91,ESE,112,1.6,1.6,76,0.00,,---,0.00,VWS V14.01,2013-07-03 07:26:00,
2013-07-03 17:31:00,57.6,50.4,29.91,SE,135,0.0,0.0,77,0.00,,---,0.00,VWS V14.01,2013-07-03 07:31:00,
2013-07-03 17:36:00,57.4,50.2,29.91,East,90,0.0,0.0,77,0.00,,---,0.00,VWS V14.01,2013-07-03 07:36:00,
2013-07-03 17:38:00,57.2,50.1,29.91,North,0,0.0,0.0,77,0.00,,---,0.00,VWS V14.01,2013-07-03 07:38:00,
2013-07-03 17:43:00,57.2,50.4,29.91,NE,45,2.2,2.2,78,0.00,,---,0.00,VWS V14.01,2013-07-03 07:43:00,
2013-07-03 17:48:00,57.0,50.6,29.91,NE,45,0.0,0.0,79,0.00,,---,0.00,VWS V14.01,2013-07-03 07:48:00,
2013-07-03 17:50:00,57.0,50.6,29.91,East,90,0.0,0.0,79,0.00,,---,0.00,VWS V14.01,2013-07-03 07:50:00,
2013-07-03 17:55:00,56.8,50.4,29.91,ENE,68,2.9,2.9,79,0.00,,---,0.00,VWS V14.01,2013-07-03 07:55:00,
2013-07-03 18:00:00,56.8,50.4,29.91,ENE,68,2.5,2.5,79,0.00,,---,0.00,VWS V14.01,2013-07-03 08:00:00,
2013-07-03 18:01:00,56.8,50.4,29.91,NE,45,0.0,2.5,79,0.00,,---,0.00,VWS V14.01,2013-07-03 08:01:00,
2013-07-03 18:06:00,56.8,50.7,29.91,NW,315,1.3,1.3,80,0.00,,---,0.00,VWS V14.01,2013-07-03 08:06:00,
2013-07-03 18:09:00,56.8,50.7,29.91,NE,45,0.0,2.0,80,0.00,,---,0.00,VWS V14.01,2013-07-03 08:09:00,
2013-07-03 18:14:00,56.8,50.7,29.91,NNE,22,0.0,1.6,80,0.00,,---,0.00,VWS V14.01,2013-07-03 08:14:00,
2013-07-03 18:18:00,56.7,50.6,29.91,WNW,292,2.5,2.5,80,0.00,,---,0.00,VWS V14.01,2013-07-03 08:18:00,
2013-07-03 18:23:00,56.7,50.9,29.91,North,0,3.6,3.6,81,0.00,,---,0.00,VWS V14.01,2013-07-03 08:23:00,
2013-07-03 18:28:00,56.7,50.9,29.91,North,0,1.1,1.1,81,0.00,,---,0.00,VWS V14.01,2013-07-03 08:28:00,
2013-07-03 18:33:00,56.7,50.9,29.91,SE,135,0.0,0.0,81,0.00,,---,0.00,VWS V14.01,2013-07-03 08:33:00,
2013-07-03 18:38:00,56.7,51.2,29.91,North,0,1.3,1.3,82,0.00,,---,0.00,VWS V14.01,2013-07-03 08:38:00,
2013-07-03 18:39:00,56.7,51.2,29.91,SW,225,0.0,1.3,82,0.00,,---,0.00,VWS V14.01,2013-07-03 08:39:00,
2013-07-03 18:44:00,56.7,51.2,29.91,SSW,202,0.0,0.0,82,0.00,,---,0.00,VWS V14.01,2013-07-03 08:44:00,
2013-07-03 18:45:00,56.7,51.2,29.91,NE,45,0.0,2.2,82,0.00,,---,0.00,VWS V14.01,2013-07-03 08:45:00,
2013-07-03 18:50:00,56.7,51.6,29.91,North,0,2.5,2.5,83,0.00,,---,0.00,VWS V14.01,2013-07-03 08:50:00,
2013-07-03 18:54:00,56.7,51.6,29.91,NNE,22,2.7,2.7,83,0.00,,---,0.00,VWS V14.01,2013-07-03 08:54:00,
2013-07-03 18:55:00,56.5,51.4,29.91,NNW,338,1.6,1.6,83,0.00,,---,0.00,VWS V14.01,2013-07-03 08:55:00,
2013-07-03 19:00:00,56.5,51.4,29.91,NNE,22,2.0,2.0,83,0.00,,---,0.00,VWS V14.01,2013-07-03 09:00:00,
2013-07-03 19:05:00,56.5,51.4,29.91,North,0,1.1,1.1,83,0.00,,---,0.00,VWS V14.01,2013-07-03 09:05:00,
2013-07-03 19:10:00,56.5,51.7,29.91,SSE,158,0.0,0.0,84,0.00,,---,0.00,VWS V14.01,2013-07-03 09:10:00,
2013-07-03 19:15:00,56.3,51.5,29.91,WNW,292,0.0,0.0,84,0.00,,---,0.00,VWS V14.01,2013-07-03 09:15:00,
2013-07-03 19:20:00,56.3,51.5,29.91,NNE,22,2.2,2.2,84,0.00,,---,0.00,VWS V14.01,2013-07-03 09:20:00,
2013-07-03 19:25:00,56.3,51.5,29.91,SE,135,0.0,0.9,84,0.00,,---,0.00,VWS V14.01,2013-07-03 09:25:00,
2013-07-03 19:30:00,56.3,51.5,29.91,NNW,338,3.1,3.1,84,0.00,,---,0.00,VWS V14.01,2013-07-03 09:30:00,
2013-07-03 19:35:00,56.3,51.5,29.91,NW,315,1.3,1.3,84,0.00,,---,0.00,VWS V14.01,2013-07-03 09:35:00,
2013-07-03 19:40:00,56.3,51.9,29.91,NW,315,3.6,3.6,85,0.00,,---,0.00,VWS V14.01,2013-07-03 09:40:00,
2013-07-03 19:41:00,56.3,51.9,29.91,NW,315,3.6,3.6,85,0.00,,---,0.00,VWS V14.01,2013-07-03 09:41:00,
2013-07-03 19:46:00,56.1,51.7,29.91,NW,315,0.0,0.0,85,0.00,,---,0.00,VWS V14.01,2013-07-03 09:46:00,
2013-07-03 19:49:00,56.1,51.7,29.91,NW,315,2.7,2.7,85,0.00,,---,0.00,VWS V14.01,2013-07-03 09:49:00,
2013-07-03 19:50:00,56.1,51.7,29.91,West,270,0.0,1.6,85,0.00,,---,0.00,VWS V14.01,2013-07-03 09:50:00,
2013-07-03 19:55:00,56.1,51.7,29.91,North,0,4.0,4.0,85,0.00,,---,0.00,VWS V14.01,2013-07-03 09:55:00,
2013-07-03 20:00:00,56.1,51.7,29.91,WNW,292,0.0,0.0,85,0.00,,---,0.00,VWS V14.01,2013-07-03 10:00:00,
2013-07-03 20:04:00,55.9,51.5,29.91,North,0,2.2,2.2,85,0.00,,---,0.00,VWS V14.01,2013-07-03 10:04:00,
2013-07-03 20:05:00,55.9,51.5,29.91,North,0,2.2,2.2,85,0.00,,---,0.00,VWS V14.01,2013-07-03 10:05:00,
2013-07-03 20:10:00,55.9,51.5,29.91,NNE,22,0.0,0.0,85,0.00,,---,0.00,VWS V14.01,2013-07-03 10:10:00,
2013-07-03 20:16:00,55.9,51.5,29.91,NE,45,0.0,2.2,85,0.00,,---,0.00,VWS V14.01,2013-07-03 10:16:00,
2013-07-03 20:21:00,55.8,51.3,29.91,ENE,68,0.0,0.0,85,0.00,,---,0.00,VWS V14.01,2013-07-03 10:21:00,
2013-07-03 20:26:00,55.6,51.5,29.91,NNW,338,0.0,0.0,86,0.00,,---,0.00,VWS V14.01,2013-07-03 10:26:00,
2013-07-03 20:31:00,55.6,51.5,29.91,ENE,68,0.0,0.0,86,0.00,,---,0.00,VWS V14.01,2013-07-03 10:31:00,
2013-07-03 20:36:00,55.4,51.3,29.91,East,90,0.0,0.0,86,0.00,,---,0.00,VWS V14.01,2013-07-03 10:36:00,
2013-07-03 20:41:00,55.4,51.3,29.91,ESE,112,1.1,1.1,86,0.00,,---,0.00,VWS V14.01,2013-07-03 10:41:00,
2013-07-03 20:46:00,55.2,51.4,29.91,East,90,0.0,0.0,87,0.00,,---,0.00,VWS V14.01,2013-07-03 10:46:00,
2013-07-03 20:49:00,55.0,51.2,29.91,NNW,338,0.0,0.0,87,0.00,,---,0.00,VWS V14.01,2013-07-03 10:49:00,
2013-07-03 20:54:00,55.0,51.2,29.91,WSW,248,0.0,0.0,87,0.00,,---,0.00,VWS V14.01,2013-07-03 10:54:00,
2013-07-03 20:55:00,55.0,51.2,29.91,SW,225,0.0,0.0,87,0.00,,---,0.00,VWS V14.01,2013-07-03 10:55:00,
2013-07-03 20:58:00,55.0,51.2,29.91,WNW,292,2.5,2.5,87,0.00,,---,0.00,VWS V14.01,2013-07-03 10:58:00,
2013-07-03 21:03:00,55.0,51.2,29.91,NW,315,1.3,1.3,87,0.00,,---,0.00,VWS V14.01,2013-07-03 11:03:00,
2013-07-03 21:08:00,55.0,51.2,29.91,North,0,0.0,0.0,87,0.00,,---,0.00,VWS V14.01,2013-07-03 11:08:00,
2013-07-03 21:10:00,55.0,51.2,29.91,North,0,0.9,0.9,87,0.00,,---,0.00,VWS V14.01,2013-07-03 11:10:00,
2013-07-03 21:15:00,55.0,51.2,29.91,NW,315,0.0,0.0,87,0.00,,---,0.00,VWS V14.01,2013-07-03 11:15:00,
2013-07-03 21:19:00,55.0,51.2,29.91,NNW,338,0.0,1.3,87,0.00,,---,0.00,VWS V14.01,2013-07-03 11:19:00,
2013-07-03 21:23:00,54.9,51.4,29.91,SW,225,1.6,1.6,88,0.00,,---,0.00,VWS V14.01,2013-07-03 11:23:00,
2013-07-03 21:25:00,54.9,51.4,29.91,NNW,338,2.5,2.5,88,0.00,,---,0.00,VWS V14.01,2013-07-03 11:25:00,
2013-07-03 21:30:00,54.9,51.4,29.91,North,0,3.4,3.4,88,0.00,,---,0.00,VWS V14.01,2013-07-03 11:30:00,
2013-07-03 21:35:00,54.9,51.4,29.91,NE,45,2.7,2.7,88,0.00,,---,0.00,VWS V14.01,2013-07-03 11:35:00,
2013-07-03 21:40:00,54.7,51.2,29.91,NNW,338,0.0,0.0,88,0.00,,---,0.00,VWS V14.01,2013-07-03 11:40:00,
2013-07-03 21:45:00,54.7,51.2,29.91,NW,315,0.0,0.0,88,0.00,,---,0.00,VWS V14.01,2013-07-03 11:45:00,
2013-07-03 21:50:00,54.5,51.0,29.91,East,90,2.7,2.7,88,0.00,,---,0.00,VWS V14.01,2013-07-03 11:50:00,
2013-07-03 21:55:00,54.5,51.0,29.91,North,0,2.5,4.7,88,0.00,,---,0.00,VWS V14.01,2013-07-03 11:55:00,
2013-07-03 21:59:00,54.5,51.0,29.91,North,0,0.0,0.0,88,0.00,,---,0.00,VWS V14.01,2013-07-03 11:59:00,
2013-07-03 22:02:00,54.5,51.0,29.91,North,0,1.6,1.6,88,0.00,,---,0.00,VWS V14.01,2013-07-03 12:02:00,
2013-07-03 22:07:00,54.5,51.0,29.91,WNW,292,0.0,0.0,88,0.00,,---,0.00,VWS V14.01,2013-07-03 12:07:00,
2013-07-03 22:12:00,54.3,50.8,29.91,SW,225,0.0,0.0,88,0.00,,---,0.00,VWS V14.01,2013-07-03 12:12:00,
2013-07-03 22:16:00,54.3,50.8,29.91,West,270,0.0,0.0,88,0.00,,---,0.00,VWS V14.01,2013-07-03 12:16:00,
2013-07-03 22:20:00,54.3,50.8,29.91,NW,315,0.0,0.0,88,0.00,,---,0.00,VWS V14.01,2013-07-03 12:20:00,
2013-07-03 22:25:00,54.1,50.7,29.91,North,0,2.2,2.2,88,0.00,,---,0.00,VWS V14.01,2013-07-03 12:25:00,
2013-07-03 22:30:00,54.0,50.5,29.91,West,270,0.0,1.3,88,0.00,,---,0.00,VWS V14.01,2013-07-03 12:30:00,
2013-07-03 22:35:00,53.8,50.3,29.91,SW,225,0.0,0.0,88,0.00,,---,0.00,VWS V14.01,2013-07-03 12:35:00,
2013-07-03 22:40:00,53.6,50.1,29.91,NNW,338,0.0,0.0,88,0.00,,---,0.00,VWS V14.01,2013-07-03 12:40:00,
2013-07-03 22:45:00,53.6,50.4,29.91,NW,315,2.7,2.7,89,0.00,,---,0.00,VWS V14.01,2013-07-03 12:45:00,
2013-07-03 22:46:00,53.6,50.4,29.91,NW,315,2.7,2.7,89,0.00,,---,0.00,VWS V14.01,2013-07-03 12:46:00,
2013-07-03 22:51:00,53.6,50.4,29.91,ENE,68,2.0,2.0,89,0.00,,---,0.00,VWS V14.01,2013-07-03 12:51:00,
2013-07-03 22:56:00,53.6,50.4,29.91,NE,45,0.0,2.9,89,0.00,,---,0.00,VWS V14.01,2013-07-03 12:56:00,
2013-07-03 23:01:00,53.6,50.4,29.91,WNW,292,1.3,1.3,89,0.00,,---,0.00,VWS V14.01,2013-07-03 13:01:00,
2013-07-03 23:06:00,53.6,50.4,29.91,West,270,2.5,2.5,89,0.00,,---,0.00,VWS V14.01,2013-07-03 13:06:00,
2013-07-03 23:11:00,53.6,50.4,29.91,NNW,338,0.0,1.6,89,0.00,,---,0.00,VWS V14.01,2013-07-03 13:11:00,
2013-07-03 23:16:00,53.4,50.6,29.91,NW,315,2.9,2.9,90,0.00,,---,0.00,VWS V14.01,2013-07-03 13:16:00,
2013-07-03 23:21:00,53.4,50.6,29.91,WNW,292,2.5,2.5,90,0.00,,---,0.00,VWS V14.01,2013-07-03 13:21:00,
2013-07-03 23:25:00,53.2,50.4,29.88,West,270,1.6,2.5,90,0.00,,---,0.00,VWS V14.01,2013-07-03 13:25:00,
2013-07-03 23:30:00,53.2,50.4,29.88,NNW,338,2.7,2.7,90,0.00,,---,0.00,VWS V14.01,2013-07-03 13:30:00,
2013-07-03 23:35:00,53.2,50.4,29.88,WNW,292,1.6,1.6,90,0.00,,---,0.00,VWS V14.01,2013-07-03 13:35:00,
2013-07-03 23:37:00,53.2,50.4,29.88,North,0,0.9,0.9,90,0.00,,---,0.00,VWS V14.01,2013-07-03 13:37:00,
2013-07-03 23:42:00,53.2,50.4,29.88,North,0,3.8,3.8,90,0.00,,---,0.00,VWS V14.01,2013-07-03 13:42:00,
2013-07-03 23:47:00,53.1,50.2,29.88,North,0,4.0,4.0,90,0.00,,---,0.00,VWS V14.01,2013-07-03 13:47:00,
2013-07-03 23:52:00,53.1,50.2,29.88,North,0,4.3,4.3,90,0.00,,---,0.00,VWS V14.01,2013-07-03 13:52:00,
2013-07-03 23:57:00,53.1,50.2,29.88,NNW,338,2.9,2.9,90,0.00,,---,0.00,VWS V14.01,2013-07-03 13:57:00,